createdAt,value
2017-06-11T00:01:46.363Z,20.64
2017-06-11T00:04:13.872Z,20.85
2017-06-11T00:06:41.375Z,21.07
2017-06-11T00:09:08.926Z,20.89
2017-06-11T00:11:36.435Z,20.78
2017-06-11T00:14:04.239Z,20.62
2017-06-11T00:16:31.752Z,20.50
2017-06-11T00:18:59.295Z,20.54
2017-06-11T00:21:26.991Z,20.61
2017-06-11T00:23:54.504Z,20.47
2017-06-11T00:26:22.057Z,20.29
2017-06-11T00:28:49.561Z,20.51
2017-06-11T00:31:17.068Z,20.40
2017-06-11T00:33:44.691Z,20.58
2017-06-11T00:36:12.194Z,20.67
2017-06-11T00:38:39.766Z,20.54
2017-06-11T00:41:07.291Z,20.26
2017-06-11T00:43:34.807Z,20.21
2017-06-11T00:46:02.372Z,19.90
2017-06-11T00:48:30.005Z,19.79
2017-06-11T00:50:57.498Z,19.97
2017-06-11T00:53:25.047Z,19.88
2017-06-11T00:55:52.556Z,19.92
2017-06-11T00:58:20.129Z,19.85
2017-06-11T01:00:47.634Z,19.76
2017-06-11T01:03:15.192Z,19.83
2017-06-11T01:05:42.703Z,20.00
2017-06-11T01:08:10.199Z,20.18
2017-06-11T01:10:37.821Z,20.18
2017-06-11T01:13:05.364Z,20.09
2017-06-11T01:15:33.292Z,20.00
2017-06-11T01:18:00.808Z,19.80
2017-06-11T01:20:28.323Z,20.00
2017-06-11T01:22:55.870Z,19.81
2017-06-11T01:25:23.425Z,19.71
2017-06-11T01:27:50.987Z,19.79
2017-06-11T01:30:18.610Z,19.64
2017-06-11T01:32:46.131Z,19.64
2017-06-11T01:35:13.691Z,19.53
2017-06-11T01:37:41.188Z,19.41
2017-06-11T01:40:08.735Z,19.26
2017-06-11T01:42:36.296Z,19.28
2017-06-11T01:45:03.845Z,19.34
2017-06-11T01:47:31.364Z,19.55
2017-06-11T01:49:58.935Z,19.75
2017-06-11T01:52:26.445Z,19.84
2017-06-11T01:54:53.986Z,19.64
2017-06-11T01:57:21.529Z,19.75
2017-06-11T01:59:49.033Z,19.81
2017-06-11T02:02:16.908Z,19.87
2017-06-11T02:04:44.415Z,19.98
2017-06-11T02:07:11.925Z,19.98
2017-06-11T02:09:39.460Z,20.01
2017-06-11T02:12:06.971Z,20.09
2017-06-11T02:14:34.520Z,20.14
2017-06-11T02:17:02.028Z,20.10
2017-06-11T02:19:29.703Z,20.14
2017-06-11T02:21:57.215Z,20.00
2017-06-11T02:24:24.820Z,20.02
2017-06-11T02:26:52.364Z,20.02
2017-06-11T02:29:19.869Z,20.03
2017-06-11T02:31:47.479Z,19.98
2017-06-11T02:34:14.998Z,20.02
2017-06-11T02:36:42.672Z,20.04
2017-06-11T02:39:11.308Z,20.06
2017-06-11T02:41:38.975Z,19.99
2017-06-11T02:44:06.567Z,19.91
2017-06-11T02:46:34.067Z,19.85
2017-06-11T02:49:01.696Z,19.82
2017-06-11T02:51:29.234Z,19.82
2017-06-11T02:53:56.798Z,19.84
2017-06-11T02:56:24.309Z,19.85
2017-06-11T02:58:51.819Z,19.86
2017-06-11T03:01:19.433Z,19.85
2017-06-11T03:03:47.092Z,19.84
2017-06-11T03:06:14.644Z,19.78
2017-06-11T03:08:42.221Z,19.88
2017-06-11T03:11:09.795Z,19.86
2017-06-11T03:13:37.335Z,19.82
2017-06-11T03:16:04.855Z,19.80
2017-06-11T03:18:32.416Z,19.81
2017-06-11T03:20:59.952Z,19.80
2017-06-11T03:23:27.495Z,19.87
2017-06-11T03:25:55.037Z,19.82
2017-06-11T03:28:22.565Z,19.87
2017-06-11T03:30:50.115Z,19.87
2017-06-11T03:33:17.613Z,19.82
2017-06-11T03:35:45.199Z,19.82
2017-06-11T03:38:12.770Z,19.81
2017-06-11T03:40:40.285Z,19.82
2017-06-11T03:43:07.826Z,19.74
2017-06-11T03:45:35.456Z,19.77
2017-06-11T03:48:03.017Z,19.79
2017-06-11T03:50:30.527Z,19.77
2017-06-11T03:52:58.051Z,19.76
2017-06-11T03:55:25.741Z,19.78
2017-06-11T03:57:53.263Z,19.73
2017-06-11T04:00:20.795Z,19.78
2017-06-11T04:02:48.338Z,19.87
2017-06-11T04:05:15.899Z,19.82
2017-06-11T04:07:43.415Z,19.74
2017-06-11T04:10:10.977Z,19.78
2017-06-11T04:12:38.521Z,19.90
2017-06-11T04:15:06.028Z,19.85
2017-06-11T04:17:33.573Z,19.89
2017-06-11T04:20:01.075Z,19.86
2017-06-11T04:22:28.627Z,19.90
2017-06-11T04:24:56.160Z,19.94
2017-06-11T04:27:23.660Z,19.95
2017-06-11T04:29:51.212Z,19.95
2017-06-11T04:32:18.710Z,19.94
2017-06-11T04:34:46.284Z,19.98
2017-06-11T04:37:13.786Z,20.05
2017-06-11T04:39:41.404Z,20.02
2017-06-11T04:42:09.055Z,20.04
2017-06-11T04:44:36.663Z,20.05
2017-06-11T04:47:04.279Z,20.08
2017-06-11T04:49:31.829Z,20.09
2017-06-11T04:51:59.444Z,20.07
2017-06-11T04:54:27.003Z,20.06
2017-06-11T04:56:54.635Z,20.11
2017-06-11T04:59:22.147Z,20.10
2017-06-11T05:01:49.718Z,20.07
2017-06-11T05:04:17.351Z,20.04
2017-06-11T05:06:44.879Z,20.08
2017-06-11T05:09:12.419Z,20.15
2017-06-11T05:11:39.912Z,20.14
2017-06-11T05:14:07.469Z,20.15
2017-06-11T05:16:34.971Z,20.08
2017-06-11T05:19:02.526Z,20.13
2017-06-11T05:21:30.039Z,20.14
2017-06-11T05:23:57.538Z,20.11
2017-06-11T05:26:25.071Z,20.14
2017-06-11T05:28:52.611Z,20.14
2017-06-11T05:31:20.195Z,20.13
2017-06-11T05:33:47.735Z,20.16
2017-06-11T05:36:15.293Z,20.23
2017-06-11T05:38:42.803Z,20.18
2017-06-11T05:41:10.322Z,20.16
2017-06-11T05:43:37.875Z,20.15
2017-06-11T05:46:05.397Z,20.15
2017-06-11T05:48:32.975Z,20.10
2017-06-11T05:51:00.499Z,20.09
2017-06-11T05:53:28.144Z,20.09
2017-06-11T05:55:55.660Z,20.08
2017-06-11T05:58:23.222Z,20.14
2017-06-11T06:00:50.787Z,20.18
2017-06-11T06:03:18.294Z,20.24
2017-06-11T06:05:45.856Z,20.22
2017-06-11T06:08:13.395Z,20.20
2017-06-11T06:10:40.948Z,20.26
2017-06-11T06:13:08.458Z,20.29
2017-06-11T06:15:36.047Z,20.32
2017-06-11T06:18:03.554Z,20.35
2017-06-11T06:20:31.079Z,20.43
2017-06-11T06:22:58.627Z,20.49
2017-06-11T06:25:26.155Z,20.54
2017-06-11T06:27:53.755Z,20.60
2017-06-11T06:30:21.252Z,20.71
2017-06-11T06:32:48.772Z,20.79
2017-06-11T06:35:16.340Z,20.84
2017-06-11T06:37:43.939Z,20.89
2017-06-11T06:40:11.495Z,20.96
2017-06-11T06:42:39.041Z,21.07
2017-06-11T06:45:06.627Z,21.14
2017-06-11T06:47:34.211Z,21.26
2017-06-11T06:50:01.996Z,21.40
2017-06-11T06:52:29.517Z,21.51
2017-06-11T06:54:57.028Z,21.64
2017-06-11T06:57:24.575Z,21.74
2017-06-11T06:59:52.078Z,21.81
2017-06-11T07:02:19.619Z,21.80
2017-06-11T07:04:47.166Z,21.83
2017-06-11T07:07:14.780Z,21.88
2017-06-11T07:09:42.296Z,21.95
2017-06-11T07:12:09.828Z,22.07
2017-06-11T07:14:37.383Z,22.16
2017-06-11T07:17:04.911Z,22.25
2017-06-11T07:19:32.456Z,22.33
2017-06-11T07:21:59.976Z,22.48
2017-06-11T07:24:27.560Z,22.57
2017-06-11T07:26:55.069Z,22.62
2017-06-11T07:29:22.592Z,22.60
2017-06-11T07:31:50.152Z,22.68
2017-06-11T07:34:17.668Z,22.75
2017-06-11T07:36:45.275Z,22.75
2017-06-11T07:39:12.784Z,22.90
2017-06-11T07:41:40.341Z,22.92
2017-06-11T07:44:07.917Z,22.98
2017-06-11T07:46:35.427Z,23.01
2017-06-11T07:49:02.983Z,23.00
2017-06-11T07:51:30.497Z,23.02
2017-06-11T07:53:58.243Z,22.99
2017-06-11T07:56:25.818Z,23.02
2017-06-11T07:58:53.411Z,23.02
2017-06-11T08:01:20.920Z,23.05
2017-06-11T08:03:48.424Z,23.18
2017-06-11T08:06:16.052Z,23.18
2017-06-11T08:08:43.586Z,23.23
2017-06-11T08:11:11.243Z,23.29
2017-06-11T08:13:38.761Z,23.30
2017-06-11T08:16:06.303Z,23.33
2017-06-11T08:18:33.962Z,23.33
2017-06-11T08:21:01.495Z,23.42
2017-06-11T08:23:29.230Z,23.44
2017-06-11T08:25:56.753Z,23.46
2017-06-11T08:28:24.268Z,23.55
2017-06-11T08:30:51.879Z,23.56
2017-06-11T08:33:19.391Z,23.58
2017-06-11T08:35:46.952Z,23.76
2017-06-11T08:38:14.448Z,23.89
2017-06-11T08:40:42.027Z,23.93
2017-06-11T08:43:09.583Z,23.90
2017-06-11T08:45:37.199Z,23.89
2017-06-11T08:48:04.907Z,23.99
2017-06-11T08:50:32.512Z,23.99
2017-06-11T08:53:00.143Z,24.17
2017-06-11T08:55:27.783Z,24.31
2017-06-11T08:57:55.295Z,24.32
2017-06-11T09:00:23.007Z,24.32
2017-06-11T09:02:50.511Z,24.30
2017-06-11T09:05:18.127Z,24.38
2017-06-11T09:07:45.676Z,24.42
2017-06-11T09:10:13.182Z,24.50
2017-06-11T09:12:41.779Z,24.53
2017-06-11T09:15:09.294Z,24.52
2017-06-11T09:17:36.806Z,24.54
2017-06-11T09:20:04.347Z,24.65
2017-06-11T09:22:31.857Z,24.71
2017-06-11T09:24:59.441Z,24.74
2017-06-11T09:27:26.955Z,24.80
2017-06-11T09:29:54.534Z,24.84
2017-06-11T09:32:22.138Z,24.89
2017-06-11T09:34:49.652Z,24.94
2017-06-11T09:37:17.204Z,24.96
2017-06-11T09:39:44.771Z,25.03
2017-06-11T09:42:12.356Z,25.15
2017-06-11T09:44:39.871Z,25.19
2017-06-11T09:47:07.438Z,25.24
2017-06-11T09:49:34.992Z,25.25
2017-06-11T09:52:02.504Z,25.27
2017-06-11T09:54:30.099Z,25.31
2017-06-11T09:56:57.642Z,25.41
2017-06-11T09:59:25.158Z,25.46
2017-06-11T10:01:52.695Z,25.55
2017-06-11T10:04:20.227Z,25.76
2017-06-11T10:06:47.818Z,26.00
2017-06-11T10:09:15.340Z,26.07
2017-06-11T10:11:42.858Z,26.15
2017-06-11T10:14:10.449Z,26.28
2017-06-11T10:16:38.011Z,26.36
2017-06-11T10:19:05.652Z,26.41
2017-06-11T10:21:33.256Z,26.41
2017-06-11T10:24:00.929Z,26.51
2017-06-11T10:26:28.539Z,26.61
2017-06-11T10:28:56.202Z,26.75
2017-06-11T10:31:23.721Z,26.74
2017-06-11T10:33:51.266Z,26.82
2017-06-11T10:36:18.788Z,26.92
2017-06-11T10:38:46.336Z,26.93
2017-06-11T10:41:13.872Z,26.98
2017-06-11T10:43:41.466Z,26.97
2017-06-11T10:46:08.964Z,26.91
2017-06-11T10:48:36.677Z,26.93
2017-06-11T10:51:04.362Z,27.00
2017-06-11T10:53:31.956Z,26.89
2017-06-11T10:55:59.531Z,26.83
2017-06-11T10:58:27.051Z,26.88
2017-06-11T11:00:54.629Z,26.97
2017-06-11T11:03:22.227Z,27.06
2017-06-11T11:05:49.830Z,27.11
2017-06-11T11:08:17.417Z,27.18
2017-06-11T11:10:44.927Z,27.23
2017-06-11T11:13:12.548Z,27.43
2017-06-11T11:15:40.063Z,27.39
2017-06-11T11:18:07.646Z,27.55
2017-06-11T11:20:35.210Z,27.58
2017-06-11T11:23:03.628Z,27.55
2017-06-11T11:25:31.290Z,27.73
2017-06-11T11:27:58.816Z,27.75
2017-06-11T11:30:26.406Z,27.84
2017-06-11T11:32:53.956Z,27.85
2017-06-11T11:35:21.531Z,27.74
2017-06-11T11:37:49.058Z,27.79
2017-06-11T11:40:16.668Z,27.89
2017-06-11T11:42:44.184Z,27.99
2017-06-11T11:45:11.704Z,28.02
2017-06-11T11:47:39.291Z,27.92
2017-06-11T11:50:06.826Z,27.98
2017-06-11T11:52:34.397Z,28.08
2017-06-11T11:55:01.913Z,28.19
2017-06-11T11:57:29.436Z,28.37
2017-06-11T11:59:57.015Z,28.49
2017-06-11T12:02:24.567Z,28.51
2017-06-11T12:04:52.159Z,28.59
2017-06-11T12:07:19.695Z,28.52
2017-06-11T12:09:47.255Z,28.70
2017-06-11T12:12:14.875Z,28.69
2017-06-11T12:14:42.407Z,28.73
2017-06-11T12:17:09.983Z,28.79
2017-06-11T12:19:37.587Z,29.17
2017-06-11T12:22:05.232Z,29.17
2017-06-11T12:24:32.755Z,29.18
2017-06-11T12:27:00.294Z,29.25
2017-06-11T12:29:27.876Z,29.34
2017-06-11T12:31:55.385Z,29.44
2017-06-11T12:34:22.966Z,29.55
2017-06-11T12:36:50.668Z,29.57
2017-06-11T12:39:18.191Z,29.60
2017-06-11T12:41:45.791Z,29.75
2017-06-11T12:44:13.350Z,29.75
2017-06-11T12:46:40.896Z,29.78
2017-06-11T12:49:08.589Z,29.77
2017-06-11T12:51:36.196Z,29.88
2017-06-11T12:54:03.734Z,29.94
2017-06-11T12:56:31.327Z,30.07
2017-06-11T12:58:58.951Z,30.33
2017-06-11T13:01:26.491Z,30.57
2017-06-11T13:03:54.078Z,30.66
2017-06-11T13:06:21.640Z,30.48
2017-06-11T13:08:49.224Z,30.56
2017-06-11T13:11:16.761Z,30.68
2017-06-11T13:13:44.454Z,30.83
2017-06-11T13:16:12.071Z,31.01
2017-06-11T13:18:39.607Z,31.29
2017-06-11T13:21:07.171Z,31.43
2017-06-11T13:23:34.715Z,31.67
2017-06-11T13:26:02.396Z,31.80
2017-06-11T13:28:29.938Z,31.93
2017-06-11T13:30:57.591Z,32.06
2017-06-11T13:33:25.136Z,32.11
2017-06-11T13:35:52.818Z,32.10
2017-06-11T13:38:21.036Z,31.66
2017-06-11T13:40:48.595Z,31.25
2017-06-11T13:43:17.091Z,31.10
2017-06-11T13:45:44.755Z,30.93
2017-06-11T13:48:12.338Z,30.81
2017-06-11T13:50:39.891Z,31.13
2017-06-11T13:53:07.437Z,31.44
2017-06-11T13:55:35.004Z,31.57
2017-06-11T13:58:02.532Z,31.53
2017-06-11T14:00:30.094Z,31.59
2017-06-11T14:02:57.660Z,31.54
2017-06-11T14:05:25.184Z,31.40
2017-06-11T14:07:52.799Z,31.30
2017-06-11T14:10:20.378Z,31.28
2017-06-11T14:12:47.917Z,31.25
2017-06-11T14:15:15.471Z,31.36
2017-06-11T14:17:43.031Z,31.43
2017-06-11T14:20:10.588Z,31.28
2017-06-11T14:22:38.142Z,30.89
2017-06-11T14:25:05.755Z,30.86
2017-06-11T14:27:33.298Z,30.73
2017-06-11T14:30:00.869Z,30.62
2017-06-11T14:32:28.486Z,30.67
2017-06-11T14:34:56.065Z,30.63
2017-06-11T14:37:23.618Z,30.70
2017-06-11T14:39:51.185Z,30.64
2017-06-11T14:42:18.754Z,30.44
2017-06-11T14:44:46.365Z,30.26
2017-06-11T14:47:13.906Z,30.26
2017-06-11T14:49:41.526Z,30.16
2017-06-11T14:52:09.103Z,30.13
2017-06-11T14:54:36.662Z,30.04
2017-06-11T14:57:04.354Z,29.97
2017-06-11T14:59:31.867Z,29.94
2017-06-11T15:01:59.443Z,29.85
2017-06-11T15:04:27.028Z,29.81
2017-06-11T15:06:54.570Z,29.72
2017-06-11T15:09:22.144Z,29.56
2017-06-11T15:11:49.695Z,29.48
2017-06-11T15:14:17.272Z,29.43
2017-06-11T15:16:44.816Z,29.28
2017-06-11T15:19:12.466Z,29.34
2017-06-11T15:21:40.043Z,29.35
2017-06-11T15:24:07.586Z,29.23
2017-06-11T15:26:35.150Z,29.14
2017-06-11T15:29:02.824Z,29.12
2017-06-11T15:31:30.440Z,28.97
2017-06-11T15:33:58.035Z,29.02
2017-06-11T15:36:25.608Z,28.97
2017-06-11T15:38:53.135Z,29.06
2017-06-11T15:41:20.648Z,29.14
2017-06-11T15:43:48.274Z,29.28
2017-06-11T15:46:15.928Z,29.18
2017-06-11T15:48:43.518Z,29.23
2017-06-11T15:51:11.099Z,28.99
2017-06-11T15:53:38.651Z,28.82
2017-06-11T15:56:06.261Z,28.62
2017-06-11T15:58:33.778Z,28.56
2017-06-11T16:01:01.402Z,28.27
2017-06-11T16:03:28.947Z,28.27
2017-06-11T16:05:56.467Z,28.45
2017-06-11T16:08:24.016Z,28.32
2017-06-11T16:10:51.535Z,28.30
2017-06-11T16:13:19.106Z,28.24
2017-06-11T16:15:46.669Z,28.34
2017-06-11T16:18:14.186Z,28.40
2017-06-11T16:20:41.764Z,28.34
2017-06-11T16:23:09.327Z,28.41
2017-06-11T16:25:36.892Z,28.23
2017-06-11T16:28:04.419Z,28.13
2017-06-11T16:30:31.999Z,28.08
2017-06-11T16:32:59.598Z,28.14
2017-06-11T16:35:27.183Z,28.13
2017-06-11T16:37:54.759Z,28.11
2017-06-11T16:40:22.306Z,28.15
2017-06-11T16:42:49.884Z,28.19
2017-06-11T16:45:17.383Z,28.24
2017-06-11T16:47:44.896Z,28.18
2017-06-11T16:50:12.475Z,28.11
2017-06-11T16:52:40.007Z,28.06
2017-06-11T16:55:07.722Z,27.90
2017-06-11T16:57:35.235Z,27.92
2017-06-11T17:00:02.750Z,27.99
2017-06-11T17:02:30.333Z,27.95
2017-06-11T17:04:57.854Z,27.97
2017-06-11T17:07:25.448Z,27.95
2017-06-11T17:09:52.958Z,28.02
2017-06-11T17:12:20.515Z,28.03
2017-06-11T17:14:48.075Z,27.91
2017-06-11T17:17:15.608Z,27.85
2017-06-11T17:19:43.291Z,27.89
2017-06-11T17:22:10.851Z,28.02
2017-06-11T17:24:38.568Z,27.94
2017-06-11T17:27:06.097Z,27.88
2017-06-11T17:29:33.615Z,27.94
2017-06-11T17:32:01.267Z,28.11
2017-06-11T17:34:28.775Z,27.96
2017-06-11T17:36:56.333Z,27.94
2017-06-11T17:39:23.864Z,27.99
2017-06-11T17:41:51.462Z,27.92
2017-06-11T17:44:18.990Z,28.02
2017-06-11T17:46:46.536Z,27.94
2017-06-11T17:49:14.085Z,27.88
2017-06-11T17:51:41.698Z,27.98
2017-06-11T17:54:09.252Z,28.13
2017-06-11T17:56:36.920Z,28.34
2017-06-11T17:59:04.463Z,28.13
2017-06-11T18:01:32.132Z,28.25
2017-06-11T18:03:59.693Z,28.39
2017-06-11T18:06:27.280Z,28.16
2017-06-11T18:08:54.844Z,28.03
2017-06-11T18:11:22.389Z,27.84
2017-06-11T18:13:49.936Z,27.73
2017-06-11T18:16:17.455Z,27.62
2017-06-11T18:18:45.033Z,27.62
2017-06-11T18:21:12.586Z,27.66
2017-06-11T18:23:40.136Z,27.63
2017-06-11T18:26:07.679Z,27.62
2017-06-11T18:28:35.223Z,27.58
2017-06-11T18:31:02.767Z,27.51
2017-06-11T18:33:30.285Z,27.53
2017-06-11T18:35:57.827Z,27.58
2017-06-11T18:38:25.355Z,27.55
2017-06-11T18:40:52.936Z,27.49
2017-06-11T18:43:20.448Z,27.38
2017-06-11T18:45:48.028Z,27.34
2017-06-11T18:48:15.611Z,27.28
2017-06-11T18:50:43.134Z,27.25
2017-06-11T18:53:10.707Z,27.24
2017-06-11T18:55:38.295Z,27.18
2017-06-11T18:58:05.890Z,27.22
2017-06-11T19:00:33.459Z,27.25
2017-06-11T19:03:00.976Z,27.10
2017-06-11T19:05:28.689Z,27.13
2017-06-11T19:07:56.443Z,27.17
2017-06-11T19:10:24.000Z,27.09
2017-06-11T19:12:51.616Z,27.10
2017-06-11T19:15:19.160Z,27.07
2017-06-11T19:17:46.735Z,27.03
2017-06-11T19:20:14.267Z,27.10
2017-06-11T19:22:41.889Z,27.05
2017-06-11T19:25:09.507Z,27.07
2017-06-11T19:27:37.061Z,27.09
2017-06-11T19:30:04.672Z,27.00
2017-06-11T19:32:32.203Z,26.92
2017-06-11T19:34:59.786Z,27.05
2017-06-11T19:37:27.413Z,26.92
2017-06-11T19:39:55.015Z,26.83
2017-06-11T19:42:22.536Z,26.72
2017-06-11T19:44:50.072Z,26.85
2017-06-11T19:47:17.689Z,26.94
2017-06-11T19:49:45.210Z,26.87
2017-06-11T19:52:12.811Z,26.72
2017-06-11T19:54:40.326Z,26.72
2017-06-11T19:57:07.882Z,26.68
2017-06-11T19:59:35.446Z,26.63
2017-06-11T20:02:03.097Z,26.59
2017-06-11T20:04:30.643Z,26.57
2017-06-11T20:06:58.187Z,26.44
2017-06-11T20:09:25.789Z,26.28
2017-06-11T20:11:53.312Z,26.35
2017-06-11T20:14:20.891Z,26.32
2017-06-11T20:16:48.411Z,26.27
2017-06-11T20:19:16.394Z,26.10
2017-06-11T20:21:43.950Z,26.08
2017-06-11T20:24:11.483Z,26.00
2017-06-11T20:26:39.036Z,26.06
2017-06-11T20:29:06.544Z,26.04
2017-06-11T20:31:34.148Z,26.12
2017-06-11T20:34:01.892Z,25.78
2017-06-11T20:36:29.490Z,25.81
2017-06-11T20:38:57.016Z,25.75
2017-06-11T20:41:24.547Z,25.68
2017-06-11T20:43:52.171Z,25.71
2017-06-11T20:46:19.699Z,25.63
2017-06-11T20:48:47.276Z,25.64
2017-06-11T20:51:14.844Z,25.64
2017-06-11T20:53:42.645Z,25.62
2017-06-11T20:56:10.307Z,25.51
2017-06-11T20:58:37.828Z,25.55
2017-06-11T21:01:05.478Z,25.39
2017-06-11T21:03:33.090Z,25.44
2017-06-11T21:06:00.633Z,25.42
2017-06-11T21:08:28.200Z,25.50
2017-06-11T21:10:55.718Z,25.48
2017-06-11T21:13:23.280Z,25.38
2017-06-11T21:15:50.836Z,25.33
2017-06-11T21:18:18.431Z,25.25
2017-06-11T21:20:46.001Z,25.34
2017-06-11T21:23:13.513Z,25.04
2017-06-11T21:25:41.083Z,24.73
2017-06-11T21:28:08.710Z,24.54
2017-06-11T21:30:36.331Z,24.25
2017-06-11T21:33:03.842Z,24.03
2017-06-11T21:35:31.351Z,23.97
2017-06-11T21:37:58.902Z,24.04
2017-06-11T21:40:26.423Z,23.80
2017-06-11T21:42:53.922Z,23.89
2017-06-11T21:45:21.512Z,23.93
2017-06-11T21:47:49.035Z,23.94
2017-06-11T21:50:16.588Z,23.68
2017-06-11T21:52:44.313Z,23.79
2017-06-11T21:55:12.009Z,23.75
2017-06-11T21:57:39.587Z,23.38
2017-06-11T22:00:07.120Z,23.44
2017-06-11T22:02:34.683Z,23.33
2017-06-11T22:05:02.295Z,23.23
2017-06-11T22:07:29.856Z,23.35
2017-06-11T22:09:57.427Z,23.29
2017-06-11T22:12:24.967Z,23.28
2017-06-11T22:14:52.543Z,23.14
2017-06-11T22:17:20.067Z,22.97
2017-06-11T22:19:47.685Z,22.91
2017-06-11T22:22:15.240Z,22.85
2017-06-11T22:24:42.755Z,22.74
2017-06-11T22:27:10.418Z,22.88
2017-06-11T22:29:37.924Z,22.73
2017-06-11T22:32:05.474Z,22.56
2017-06-11T22:34:33.029Z,22.62
2017-06-11T22:37:00.651Z,22.49
2017-06-11T22:39:28.167Z,22.51
2017-06-11T22:41:55.783Z,22.45
2017-06-11T22:44:23.347Z,22.41
2017-06-11T22:46:50.870Z,22.31
2017-06-11T22:49:18.422Z,22.37
2017-06-11T22:51:45.939Z,22.39
2017-06-11T22:54:13.466Z,22.33
2017-06-11T22:56:41.008Z,22.40
2017-06-11T22:59:08.514Z,22.25
2017-06-11T23:01:36.167Z,22.20
2017-06-11T23:04:03.798Z,22.15
2017-06-11T23:06:31.356Z,22.09
2017-06-11T23:08:58.880Z,22.09
2017-06-11T23:11:26.455Z,22.04
2017-06-11T23:13:53.985Z,22.03
2017-06-11T23:16:21.495Z,21.91
2017-06-11T23:18:49.058Z,22.00
2017-06-11T23:21:16.574Z,21.86
2017-06-11T23:23:44.130Z,21.91
2017-06-11T23:26:11.683Z,21.95
2017-06-11T23:28:39.275Z,21.84
2017-06-11T23:31:06.814Z,21.80
2017-06-11T23:33:34.396Z,21.85
2017-06-11T23:36:01.955Z,21.78
2017-06-11T23:38:29.475Z,21.79
2017-06-11T23:40:57.191Z,21.80
2017-06-11T23:43:24.709Z,21.71
2017-06-11T23:45:52.458Z,21.64
2017-06-11T23:48:19.974Z,21.57
2017-06-11T23:50:47.630Z,21.55
2017-06-11T23:53:15.187Z,21.56
2017-06-11T23:55:42.696Z,21.41
2017-06-11T23:58:10.368Z,21.50
